Time;durP1;ratioP1;P1;durP2;ratioP2;P2;SDS_P1;SDS_P2;PMS_P1;PMS_P2;Temp;Humidity;BMP_temperature;BMP_pressure;BME280_temperature;BME280_humidity;BME280_pressure;Samples;Min_cycle;Max_cycle;Signal;HPM_P1;HPM_P2
2021/05/25 00:00:38;;;;;;;1.58;0.70;;;11.40;99.90;;;;;;5048556;28;20649;-67
2021/05/25 00:03:07;;;;;;;1.60;0.82;;;11.30;99.90;;;;;;5046480;28;20048;-67
2021/05/25 00:05:36;;;;;;;2.60;0.60;;;11.30;99.90;;;;;;5047107;28;20075;-67
2021/05/25 00:08:04;;;;;;;1.42;0.75;;;11.20;99.90;;;;;;5047761;28;20048;-67
2021/05/25 00:10:32;;;;;;;2.10;0.90;;;11.20;99.90;;;;;;5048533;28;20060;-67
2021/05/25 00:13:00;;;;;;;2.30;0.60;;;11.20;99.90;;;;;;5049247;28;20321;-67
2021/05/25 00:15:29;;;;;;;1.85;0.68;;;11.10;99.90;;;;;;5047158;28;20060;-67
2021/05/25 00:17:56;;;;;;;2.38;0.50;;;11.00;99.90;;;;;;5047397;28;20063;-67
2021/05/25 00:20:24;;;;;;;2.10;0.88;;;10.90;99.90;;;;;;5047821;28;20059;-67
2021/05/25 00:22:52;;;;;;;1.77;0.60;;;10.90;99.90;;;;;;5049884;28;20048;-67
2021/05/25 00:25:19;;;;;;;2.55;0.73;;;10.90;99.90;;;;;;5047213;28;20040;-67
2021/05/25 00:27:46;;;;;;;7.18;1.00;;;10.80;99.90;;;;;;5044527;28;20055;-67
2021/05/25 00:30:15;;;;;;;0.75;0.40;;;10.70;99.90;;;;;;5040726;28;20732;-67
2021/05/25 00:32:42;;;;;;;4.72;1.00;;;10.70;99.90;;;;;;5051876;28;20074;-67
2021/05/25 00:35:10;;;;;;;5.00;1.00;;;10.70;99.90;;;;;;5048414;28;20183;-67
2021/05/25 00:37:38;;;;;;;2.35;0.82;;;10.70;99.90;;;;;;5046665;28;20052;-67
2021/05/25 00:40:07;;;;;;;1.80;0.70;;;10.70;99.90;;;;;;5049428;28;20052;-67
2021/05/25 00:42:36;;;;;;;2.67;0.90;;;10.70;99.90;;;;;;5050928;28;20048;-67
2021/05/25 00:45:04;;;;;;;1.08;0.55;;;10.50;99.90;;;;;;5046305;28;20050;-67
2021/05/25 00:47:33;;;;;;;2.10;0.57;;;10.60;99.90;;;;;;5045791;28;20044;-67
2021/05/25 00:50:10;;;;;;;3.20;0.82;;;10.70;99.90;;;;;;5048615;28;20527;-67
2021/05/25 00:52:36;;;;;;;;;;;10.50;99.90;;;;;;5050648;28;20048;-67
2021/05/25 00:55:06;;;;;;;2.65;0.80;;;10.60;99.90;;;;;;5050921;28;20095;-67
2021/05/25 00:57:33;;;;;;;3.55;0.70;;;10.60;99.90;;;;;;5046443;28;20132;-67
2021/05/25 01:00:00;;;;;;;3.05;0.68;;;10.60;99.90;;;;;;5049970;28;20048;-67
2021/05/25 01:02:27;;;;;;;1.65;0.60;;;10.60;99.90;;;;;;5048506;28;20428;-67
2021/05/25 01:04:53;;;;;;;1.10;0.55;;;10.50;99.90;;;;;;5046881;28;20048;-67
2021/05/25 01:07:20;;;;;;;2.85;0.70;;;10.50;99.90;;;;;;5048023;28;20048;-67
2021/05/25 01:09:46;;;;;;;1.38;0.60;;;10.50;99.90;;;;;;5050075;28;20086;-66
2021/05/25 01:12:14;;;;;;;1.83;0.73;;;10.40;99.90;;;;;;5051873;28;20079;-67
2021/05/25 01:14:45;;;;;;;2.20;0.98;;;10.40;99.90;;;;;;5053040;28;20097;-67
2021/05/25 01:17:12;;;;;;;1.85;0.65;;;10.30;99.90;;;;;;5048401;28;20914;-67
2021/05/25 01:19:39;;;;;;;1.73;0.50;;;10.40;99.90;;;;;;5048210;28;20059;-67
2021/05/25 01:22:07;;;;;;;0.75;0.50;;;10.40;99.90;;;;;;5049416;28;20405;-67
2021/05/25 01:24:34;;;;;;;1.13;0.50;;;10.30;99.90;;;;;;5052210;28;20077;-67
2021/05/25 01:27:02;;;;;;;0.80;0.40;;;10.30;99.90;;;;;;5048421;28;20040;-67
2021/05/25 01:29:29;;;;;;;2.63;0.60;;;10.30;99.90;;;;;;5050230;28;20056;-67
2021/05/25 01:31:55;;;;;;;1.92;0.65;;;10.30;99.90;;;;;;5050397;28;20496;-67
2021/05/25 01:34:22;;;;;;;1.65;0.73;;;10.20;99.90;;;;;;5049046;28;20048;-67
2021/05/25 01:36:49;;;;;;;2.70;0.50;;;10.20;99.90;;;;;;5049745;28;20315;-67
2021/05/25 01:39:17;;;;;;;3.47;0.68;;;10.20;99.90;;;;;;5048187;28;20052;-67
2021/05/25 01:41:43;;;;;;;2.28;0.60;;;10.10;99.90;;;;;;5049962;28;20051;-67
2021/05/25 01:44:11;;;;;;;2.67;0.68;;;10.10;99.90;;;;;;5046136;28;20047;-67
2021/05/25 01:46:44;;;;;;;3.05;0.70;;;10.20;99.90;;;;;;5047163;28;20490;-67
2021/05/25 01:49:11;;;;;;;4.43;1.33;;;10.20;99.90;;;;;;5047644;28;20051;-67
2021/05/25 01:51:38;;;;;;;2.88;0.50;;;10.10;99.90;;;;;;5044006;28;20044;-67
2021/05/25 01:54:05;;;;;;;3.35;0.57;;;10.10;99.90;;;;;;5043374;28;20059;-67
2021/05/25 01:56:32;;;;;;;1.70;0.65;;;10.20;99.90;;;;;;5044028;28;20048;-67
2021/05/25 01:58:59;;;;;;;5.18;0.77;;;10.10;99.90;;;;;;5041558;28;20052;-67
2021/05/25 02:01:25;;;;;;;3.47;0.40;;;10.10;99.90;;;;;;5041446;28;20459;-67
2021/05/25 02:03:52;;;;;;;4.40;0.80;;;10.00;99.90;;;;;;5040685;28;20537;-67
2021/05/25 02:06:18;;;;;;;1.63;0.57;;;10.20;99.90;;;;;;5039316;28;20056;-67
2021/05/25 02:08:45;;;;;;;1.40;0.47;;;10.30;99.90;;;;;;5039398;28;20496;-67
2021/05/25 02:11:11;;;;;;;1.90;0.55;;;10.30;99.90;;;;;;5041027;28;20044;-67
2021/05/25 02:13:40;;;;;;;1.42;0.40;;;10.30;99.90;;;;;;5041975;28;21374;-67
2021/05/25 02:16:09;;;;;;;1.42;0.40;;;10.20;99.90;;;;;;5041569;28;20048;-67
2021/05/25 02:18:37;;;;;;;1.42;0.30;;;10.30;99.90;;;;;;5042141;28;20040;-67
2021/05/25 02:21:06;;;;;;;3.55;0.70;;;10.30;99.90;;;;;;5039752;28;20052;-67
2021/05/25 02:23:33;;;;;;;5.45;0.63;;;10.30;99.90;;;;;;5038781;28;20044;-67
2021/05/25 02:26:00;;;;;;;2.72;0.70;;;10.30;99.90;;;;;;5040859;28;20059;-67
2021/05/25 02:28:27;;;;;;;2.00;0.40;;;10.20;99.90;;;;;;5039426;28;20113;-67
2021/05/25 02:30:55;;;;;;;2.13;0.70;;;10.30;99.90;;;;;;5044268;28;20051;-67
2021/05/25 02:33:22;;;;;;;1.83;0.63;;;10.30;99.90;;;;;;5040793;28;20048;-67
2021/05/25 02:35:50;;;;;;;3.35;0.73;;;10.20;99.90;;;;;;5042352;28;20048;-67
2021/05/25 02:38:17;;;;;;;2.00;0.68;;;10.20;99.90;;;;;;5038400;28;20052;-67
2021/05/25 02:40:45;;;;;;;1.23;0.40;;;10.20;99.90;;;;;;5041124;28;20054;-67
2021/05/25 02:43:12;;;;;;;1.65;0.60;;;10.20;99.90;;;;;;5040542;28;20044;-67
2021/05/25 02:45:39;;;;;;;2.05;0.47;;;10.10;99.90;;;;;;5041155;28;20044;-67
2021/05/25 02:48:07;;;;;;;2.70;0.55;;;10.20;99.90;;;;;;5037349;28;20059;-67
2021/05/25 02:50:34;;;;;;;2.65;0.75;;;10.20;99.90;;;;;;5037645;28;20075;-67
2021/05/25 02:53:01;;;;;;;1.55;0.43;;;10.10;99.90;;;;;;5039622;28;20062;-67
2021/05/25 02:55:29;;;;;;;0.75;0.40;;;10.10;99.90;;;;;;5040879;28;20056;-67
2021/05/25 02:57:57;;;;;;;3.20;0.70;;;10.10;99.90;;;;;;5039355;28;20059;-67
2021/05/25 03:00:26;;;;;;;3.03;0.70;;;10.10;99.90;;;;;;5041700;28;20059;-67
2021/05/25 03:02:53;;;;;;;3.53;0.63;;;10.00;99.90;;;;;;5043131;28;20055;-67
2021/05/25 03:05:23;;;;;;;0.57;0.55;;;10.00;99.90;;;;;;5039966;28;20067;-67
2021/05/25 03:07:50;;;;;;;2.90;0.70;;;9.90;99.90;;;;;;5038321;28;20527;-67
2021/05/25 03:10:19;;;;;;;1.85;0.60;;;9.80;99.90;;;;;;5041588;28;20056;-67
2021/05/25 03:12:45;;;;;;;1.52;0.70;;;9.70;99.90;;;;;;5042060;28;20051;-67
2021/05/25 03:15:15;;;;;;;0.88;0.40;;;9.70;99.90;;;;;;5040686;28;20044;-67
2021/05/25 03:17:42;;;;;;;1.95;0.80;;;9.60;99.90;;;;;;5039750;28;20057;-67
2021/05/25 03:20:11;;;;;;;3.28;0.70;;;9.60;99.90;;;;;;5039720;28;20047;-67
2021/05/25 03:22:39;;;;;;;3.78;0.80;;;9.50;99.90;;;;;;5042935;28;20385;-67
2021/05/25 03:25:08;;;;;;;3.28;0.70;;;9.50;99.90;;;;;;5039666;28;20048;-67
2021/05/25 03:27:35;;;;;;;2.00;0.77;;;9.50;99.90;;;;;;5039144;28;20052;-67
2021/05/25 03:30:02;;;;;;;3.28;0.80;;;9.50;99.90;;;;;;5042849;28;20052;-67
2021/05/25 03:32:28;;;;;;;3.50;0.80;;;9.50;99.90;;;;;;5041929;28;20052;-67
2021/05/25 03:34:55;;;;;;;1.98;0.60;;;9.60;99.90;;;;;;5039495;28;20074;-67
2021/05/25 03:37:21;;;;;;;1.98;0.60;;;9.50;99.90;;;;;;5038903;28;20501;-67
2021/05/25 03:39:49;;;;;;;5.97;0.90;;;9.60;99.90;;;;;;5038590;28;20040;-67
2021/05/25 03:42:15;;;;;;;2.42;0.60;;;9.60;99.90;;;;;;5040483;28;20045;-67
2021/05/25 03:44:43;;;;;;;4.22;0.90;;;9.60;99.90;;;;;;5041136;28;20114;-67
2021/05/25 03:47:09;;;;;;;2.20;0.77;;;9.60;99.90;;;;;;5040548;28;20052;-67
2021/05/25 03:49:36;;;;;;;1.60;0.55;;;9.60;99.90;;;;;;5041123;28;20222;-66
2021/05/25 03:52:03;;;;;;;4.43;0.82;;;9.60;99.90;;;;;;5044052;28;20145;-67
2021/05/25 03:54:33;;;;;;;1.67;0.50;;;9.70;99.90;;;;;;5045116;28;20073;-67
2021/05/25 03:57:07;;;;;;;1.30;0.70;;;9.60;99.90;;;;;;5041316;28;20453;-67
2021/05/25 03:59:34;;;;;;;1.80;0.60;;;9.60;99.90;;;;;;5042951;28;20633;-66
2021/05/25 04:02:01;;;;;;;1.95;0.77;;;9.70;99.90;;;;;;5039816;28;20040;-67
2021/05/25 04:04:28;;;;;;;2.70;0.80;;;9.70;99.90;;;;;;5039108;28;20161;-67
2021/05/25 04:06:54;;;;;;;1.40;0.60;;;9.70;99.90;;;;;;5041995;28;20050;-67
2021/05/25 04:09:21;;;;;;;2.40;0.90;;;9.70;99.90;;;;;;5038534;28;20420;-67
2021/05/25 04:11:48;;;;;;;2.05;0.52;;;9.80;99.90;;;;;;5041936;28;20056;-67
2021/05/25 04:14:16;;;;;;;1.63;0.40;;;9.90;99.90;;;;;;5043226;28;20058;-67
2021/05/25 04:16:42;;;;;;;1.70;0.60;;;9.80;99.90;;;;;;5041569;28;20094;-67
2021/05/25 04:19:09;;;;;;;2.15;0.75;;;9.80;99.90;;;;;;5043673;28;20252;-67
2021/05/25 04:21:35;;;;;;;3.00;0.95;;;10.00;99.90;;;;;;5044096;28;20121;-66
2021/05/25 04:24:02;;;;;;;6.03;1.00;;;9.90;99.90;;;;;;5043038;28;20047;-67
2021/05/25 04:26:29;;;;;;;3.92;1.00;;;9.70;99.90;;;;;;5039243;28;20066;-67
2021/05/25 04:28:56;;;;;;;2.20;1.05;;;9.50;99.90;;;;;;5036919;28;20121;-67
2021/05/25 04:31:23;;;;;;;3.10;0.90;;;9.50;99.90;;;;;;5045219;28;20052;-66
2021/05/25 04:33:50;;;;;;;2.92;0.70;;;9.50;99.90;;;;;;5042831;28;20060;-67
2021/05/25 04:36:18;;;;;;;4.00;1.02;;;9.20;99.90;;;;;;5041934;28;20056;-66
2021/05/25 04:38:44;;;;;;;2.28;1.00;;;9.10;99.90;;;;;;5039354;28;20044;-66
2021/05/25 04:41:11;;;;;;;4.10;0.90;;;9.10;99.90;;;;;;5045811;28;20493;-67
2021/05/25 04:43:38;;;;;;;3.22;0.82;;;9.00;99.90;;;;;;5045609;28;20060;-67
2021/05/25 04:46:05;;;;;;;6.47;1.17;;;9.00;99.90;;;;;;5042912;28;20060;-67
2021/05/25 04:48:32;;;;;;;2.00;0.95;;;8.90;99.90;;;;;;5044828;28;20233;-66
2021/05/25 04:51:02;;;;;;;3.58;1.02;;;8.90;99.90;;;;;;5043574;28;20743;-67
2021/05/25 04:53:29;;;;;;;2.47;0.85;;;8.90;99.90;;;;;;5044067;28;20692;-67
2021/05/25 04:55:55;;;;;;;3.95;0.77;;;8.90;99.90;;;;;;5042702;28;20063;-67
2021/05/25 04:58:22;;;;;;;3.35;1.00;;;8.90;99.90;;;;;;5037909;28;20056;-67
2021/05/25 05:00:48;;;;;;;3.60;0.75;;;8.90;99.90;;;;;;5041038;28;20052;-66
2021/05/25 05:03:15;;;;;;;3.47;0.90;;;9.00;99.90;;;;;;5041871;28;20056;-67
2021/05/25 05:05:42;;;;;;;3.25;1.10;;;9.00;99.90;;;;;;5043384;28;20383;-67
2021/05/25 05:08:09;;;;;;;2.45;0.90;;;9.00;99.90;;;;;;5044369;28;20492;-67
2021/05/25 05:10:36;;;;;;;4.13;0.98;;;9.10;99.90;;;;;;5043072;28;20052;-67
2021/05/25 05:13:08;;;;;;;3.03;0.80;;;9.00;99.90;;;;;;5043686;28;21811;-67
2021/05/25 05:15:34;;;;;;;1.95;0.63;;;9.10;99.90;;;;;;5042438;28;20117;-67
2021/05/25 05:18:01;;;;;;;2.55;0.80;;;9.10;99.90;;;;;;5039985;28;20114;-67
2021/05/25 05:20:28;;;;;;;2.75;0.70;;;9.20;99.90;;;;;;5043859;28;20052;-67
2021/05/25 05:22:55;;;;;;;4.10;0.80;;;9.10;99.90;;;;;;5043967;28;20151;-67
2021/05/25 05:25:22;;;;;;;3.58;0.80;;;9.20;99.90;;;;;;5045260;28;20522;-67
2021/05/25 05:27:48;;;;;;;2.28;0.60;;;9.20;99.90;;;;;;5038324;28;20785;-67
2021/05/25 05:30:17;;;;;;;4.40;0.90;;;9.20;99.90;;;;;;5043160;28;20044;-67
2021/05/25 05:32:43;;;;;;;5.22;1.02;;;9.30;99.90;;;;;;5041918;28;21585;-67
2021/05/25 05:35:10;;;;;;;5.22;1.00;;;9.30;99.90;;;;;;5040982;28;20059;-67
2021/05/25 05:37:37;;;;;;;5.10;0.80;;;9.40;99.90;;;;;;5044024;28;20064;-66
2021/05/25 05:40:07;;;;;;;2.60;0.63;;;9.50;99.90;;;;;;5039791;28;20048;-67
2021/05/25 05:42:34;;;;;;;3.15;0.90;;;9.50;99.90;;;;;;5037820;28;20056;-67
2021/05/25 05:45:00;;;;;;;1.92;0.75;;;9.50;99.90;;;;;;5043781;28;20150;-66
2021/05/25 05:47:27;;;;;;;3.60;0.52;;;9.50;99.90;;;;;;5043911;28;20051;-66
2021/05/25 05:49:53;;;;;;;3.33;0.70;;;9.50;99.90;;;;;;5043231;28;20062;-66
2021/05/25 05:52:20;;;;;;;3.13;0.65;;;9.60;99.90;;;;;;5037793;28;20063;-66
2021/05/25 05:54:47;;;;;;;2.30;0.70;;;9.60;99.90;;;;;;5041258;28;20423;-67
2021/05/25 05:57:15;;;;;;;4.18;0.90;;;9.60;99.90;;;;;;5048414;28;20307;-66
2021/05/25 05:59:42;;;;;;;5.28;0.57;;;9.70;99.90;;;;;;5049135;28;20067;-67
2021/05/25 06:02:08;;;;;;;2.72;0.70;;;9.70;99.90;;;;;;5054356;28;20421;-66
2021/05/25 06:04:35;;;;;;;2.00;0.75;;;9.90;99.90;;;;;;5053715;28;20052;-66
2021/05/25 06:07:01;;;;;;;1.65;0.50;;;9.90;99.90;;;;;;5052345;28;20044;-66
2021/05/25 06:09:28;;;;;;;3.20;0.80;;;10.00;99.90;;;;;;5053747;28;20051;-66
2021/05/25 06:11:54;;;;;;;2.30;0.60;;;10.00;99.90;;;;;;5054218;28;20436;-66
2021/05/25 06:14:24;;;;;;;2.42;0.52;;;10.00;99.90;;;;;;5052807;28;20291;-67
2021/05/25 06:16:51;;;;;;;3.35;0.80;;;10.10;99.90;;;;;;5049906;28;20866;-67
2021/05/25 06:22:33;;;;;;;2.92;1.05;;;10.40;99.90;;;;;;5077920;28;20122;-64
2021/05/25 06:25:00;;;;;;;6.78;0.85;;;10.70;99.90;;;;;;5054401;28;20360;-64
2021/05/25 06:27:26;;;;;;;3.53;0.73;;;10.70;99.90;;;;;;5046614;28;20052;-64
2021/05/25 06:29:54;;;;;;;2.00;0.68;;;10.70;99.90;;;;;;5052078;28;20113;-64
2021/05/25 06:32:20;;;;;;;3.30;0.68;;;10.80;99.90;;;;;;5053401;28;20059;-64
2021/05/25 06:34:48;;;;;;;;;;;10.70;99.90;;;;;;5053261;28;20040;-64
2021/05/25 06:37:14;;;;;;;;;;;10.70;99.90;;;;;;5052048;28;20327;-64
2021/05/25 06:39:41;;;;;;;2.75;0.55;;;10.60;99.90;;;;;;5052067;28;19931;-64
2021/05/25 06:42:08;;;;;;;4.93;0.63;;;10.40;99.90;;;;;;5052847;28;20052;-64
2021/05/25 06:44:34;;;;;;;8.13;1.73;;;10.50;99.90;;;;;;5054567;28;20063;-64
2021/05/25 06:47:02;;;;;;;4.13;0.70;;;10.50;99.90;;;;;;5052353;28;20079;-64
2021/05/25 06:49:28;;;;;;;3.10;0.45;;;10.60;99.90;;;;;;5053123;28;20051;-64
2021/05/25 06:51:55;;;;;;;2.47;0.40;;;10.60;99.90;;;;;;5052431;28;20117;-64
2021/05/25 06:54:22;;;;;;;2.75;0.43;;;10.40;99.90;;;;;;5051236;28;20459;-64
2021/05/25 06:56:48;;;;;;;0.73;0.40;;;10.30;99.90;;;;;;5052549;28;20078;-64
2021/05/25 06:59:15;;;;;;;7.45;0.85;;;10.30;99.90;;;;;;5052063;28;21394;-64
2021/05/25 07:01:42;;;;;;;3.25;1.48;;;10.20;99.90;;;;;;5052756;28;20443;-64
2021/05/25 07:04:09;;;;;;;4.65;0.60;;;10.20;99.90;;;;;;5053298;28;20048;-64
2021/05/25 07:06:36;;;;;;;1.98;0.70;;;10.20;99.90;;;;;;5053121;28;20044;-64
2021/05/25 07:09:04;;;;;;;1.15;0.57;;;10.30;99.90;;;;;;5050463;28;21295;-63
2021/05/25 07:11:31;;;;;;;0.63;0.30;;;10.40;99.90;;;;;;5052461;28;20147;-64
2021/05/25 07:13:58;;;;;;;2.88;0.60;;;10.60;99.90;;;;;;5051758;28;20044;-64
2021/05/25 07:16:24;;;;;;;1.40;0.40;;;10.60;99.90;;;;;;5049831;28;20053;-64
2021/05/25 07:18:51;;;;;;;6.38;0.80;;;11.00;99.90;;;;;;5050582;28;20044;-64
2021/05/25 07:21:19;;;;;;;4.78;0.50;;;11.00;99.90;;;;;;5052279;28;20530;-64
2021/05/25 07:23:46;;;;;;;0.80;0.52;;;11.00;99.90;;;;;;5051799;28;20045;-63
2021/05/25 07:26:12;;;;;;;3.53;0.40;;;11.10;99.90;;;;;;5053662;28;20102;-64
2021/05/25 07:28:39;;;;;;;8.23;0.88;;;11.30;99.90;;;;;;5055299;28;20048;-64
2021/05/25 07:31:05;;;;;;;4.82;1.25;;;11.30;99.90;;;;;;5052608;28;20048;-64
2021/05/25 07:33:32;;;;;;;2.30;0.70;;;11.20;99.90;;;;;;5054769;28;20090;-64
2021/05/25 07:35:58;;;;;;;2.30;0.60;;;11.20;99.90;;;;;;5055237;28;20075;-64
2021/05/25 07:38:26;;;;;;;2.35;0.55;;;11.10;99.90;;;;;;5053689;28;20579;-64
2021/05/25 07:40:53;;;;;;;5.03;0.60;;;11.00;99.90;;;;;;5056011;28;20105;-64
2021/05/25 07:43:19;;;;;;;1.52;0.40;;;11.00;99.90;;;;;;5055811;28;20060;-64
2021/05/25 07:45:46;;;;;;;3.55;0.60;;;10.90;99.90;;;;;;5055947;28;20070;-64
2021/05/25 07:48:13;;;;;;;0.90;0.40;;;10.80;99.90;;;;;;5057304;28;20040;-64
2021/05/25 07:50:40;;;;;;;0.47;0.30;;;10.70;99.90;;;;;;5054191;28;20398;-64
2021/05/25 07:53:06;;;;;;;1.38;0.52;;;10.90;99.90;;;;;;5056493;28;20153;-64
2021/05/25 07:55:34;;;;;;;3.35;0.82;;;11.00;99.90;;;;;;5053800;28;20060;-64
2021/05/25 07:58:02;;;;;;;1.70;0.55;;;11.10;99.90;;;;;;5050673;28;20098;-64
2021/05/25 08:00:29;;;;;;;2.83;1.05;;;11.20;99.90;;;;;;5056671;28;20051;-64
2021/05/25 08:02:57;;;;;;;2.28;0.50;;;11.00;99.90;;;;;;5056898;28;20146;-64
2021/05/25 08:05:25;;;;;;;1.95;0.63;;;11.00;99.90;;;;;;5056441;28;20973;-64
2021/05/25 08:07:52;;;;;;;2.45;0.95;;;10.90;99.90;;;;;;5055694;28;20056;-64
2021/05/25 08:10:19;;;;;;;1.55;0.47;;;11.10;99.90;;;;;;5055467;28;20066;-64
2021/05/25 08:12:47;;;;;;;2.30;0.50;;;11.30;99.90;;;;;;5055169;28;20660;-64
2021/05/25 08:15:16;;;;;;;2.17;0.90;;;11.60;99.90;;;;;;5052275;28;20060;-64
2021/05/25 08:20:27;;;;;;;1.38;0.60;;;11.90;99.90;;;;;;5042329;28;20731;-64
2021/05/25 08:22:56;;;;;;;1.52;0.40;;;11.90;99.90;;;;;;5052922;28;20059;-64
2021/05/25 08:25:25;;;;;;;2.78;0.60;;;12.00;99.90;;;;;;5051984;28;20079;-64
2021/05/25 08:27:54;;;;;;;3.20;0.50;;;12.40;99.90;;;;;;5052053;28;20578;-64
2021/05/25 08:30:23;;;;;;;4.20;0.52;;;12.30;99.90;;;;;;5050445;28;20113;-64
2021/05/25 08:32:51;;;;;;;4.32;0.70;;;12.40;99.90;;;;;;5052933;28;20055;-63
2021/05/25 08:35:23;;;;;;;2.58;0.43;;;12.30;99.90;;;;;;5051202;28;20070;-63
2021/05/25 08:37:57;;;;;;;1.63;0.50;;;12.30;99.90;;;;;;5045431;28;20072;-64
2021/05/25 08:40:24;;;;;;;1.40;0.43;;;12.40;99.90;;;;;;5048865;28;20052;-64
2021/05/25 08:42:52;;;;;;;1.67;0.45;;;12.60;99.90;;;;;;5050101;28;20416;-64
2021/05/25 08:45:20;;;;;;;0.52;0.28;;;12.30;99.90;;;;;;5049736;28;20052;-64
2021/05/25 08:47:48;;;;;;;0.88;0.47;;;12.50;99.90;;;;;;5052034;28;20408;-64
2021/05/25 08:50:16;;;;;;;3.15;0.60;;;12.40;99.90;;;;;;5048579;28;20049;-64
2021/05/25 08:52:43;;;;;;;13.40;0.93;;;12.30;99.90;;;;;;5052181;28;20091;-64
2021/05/25 08:55:11;;;;;;;0.82;0.32;;;12.30;99.90;;;;;;5054187;28;20056;-64
2021/05/25 08:57:38;;;;;;;0.20;0.20;;;12.20;99.90;;;;;;5051920;28;20056;-64
2021/05/25 09:00:08;;;;;;;1.65;0.50;;;12.20;99.90;;;;;;5053396;28;20044;-64
2021/05/25 09:02:35;;;;;;;0.47;0.30;;;12.30;99.90;;;;;;5053276;28;20052;-64
2021/05/25 09:05:04;;;;;;;0.57;0.40;;;12.50;99.90;;;;;;5054565;28;20074;-64
2021/05/25 09:07:46;;;;;;;1.52;0.45;;;12.40;99.90;;;;;;5053093;28;20875;-64
2021/05/25 09:10:16;;;;;;;2.28;0.60;;;12.40;99.90;;;;;;5053976;28;20059;-64
2021/05/25 09:12:45;;;;;;;4.05;0.70;;;12.30;99.90;;;;;;5054838;28;20416;-64
2021/05/25 09:15:15;;;;;;;1.30;0.30;;;12.70;99.90;;;;;;5054094;28;20127;-64
2021/05/25 09:17:42;;;;;;;2.28;0.35;;;12.60;99.90;;;;;;5051283;28;20055;-64
2021/05/25 09:20:10;;;;;;;1.55;0.50;;;12.30;99.90;;;;;;5053686;28;20336;-64
2021/05/25 09:22:39;;;;;;;3.17;0.50;;;12.10;99.90;;;;;;5048342;28;20664;-64
2021/05/25 09:25:17;;;;;;;5.45;0.50;;;12.30;99.90;;;;;;5051900;28;20419;-64
2021/05/25 09:27:47;;;;;;;1.13;0.38;;;12.40;99.90;;;;;;5052059;28;20048;-64
2021/05/25 09:30:18;;;;;;;3.33;0.50;;;12.20;99.90;;;;;;5052418;28;20054;-64
2021/05/25 09:32:57;;;;;;;1.70;0.40;;;11.90;99.90;;;;;;5053120;28;20570;-64
2021/05/25 09:35:25;;;;;;;3.65;0.70;;;11.70;99.90;;;;;;5048703;28;20529;-64
2021/05/25 09:37:53;;;;;;;2.67;0.50;;;11.90;99.90;;;;;;5046060;28;20044;-64
2021/05/25 09:40:22;;;;;;;0.95;0.50;;;12.00;99.90;;;;;;5049518;28;20430;-64
2021/05/25 09:42:52;;;;;;;1.33;0.82;;;12.00;99.90;;;;;;5047159;28;20133;-64
2021/05/25 09:45:20;;;;;;;4.00;1.35;;;12.00;99.90;;;;;;5050511;28;20060;-64
2021/05/25 09:47:51;;;;;;;3.10;0.70;;;11.60;99.90;;;;;;5043979;28;20552;-64
2021/05/25 09:50:19;;;;;;;2.20;0.40;;;11.60;99.90;;;;;;5050094;28;20056;-64
2021/05/25 09:53:03;;;;;;;2.67;0.70;;;11.50;99.90;;;;;;5049207;28;20406;-64
2021/05/25 09:55:32;;;;;;;1.95;0.40;;;11.50;99.90;;;;;;5050258;28;20105;-64
2021/05/25 09:57:59;;;;;;;0.73;0.25;;;11.40;99.90;;;;;;5052101;28;20128;-64
2021/05/25 10:00:34;;;;;;;4.18;0.68;;;11.20;99.90;;;;;;5049821;28;20106;-64
2021/05/25 10:03:16;;;;;;;0.90;0.30;;;11.20;99.90;;;;;;5050967;28;20519;-64
2021/05/25 10:05:45;;;;;;;0.95;0.45;;;11.00;99.90;;;;;;5045635;28;20058;-64
2021/05/25 10:08:13;;;;;;;0.77;0.40;;;11.20;99.90;;;;;;5042318;28;20535;-64
2021/05/25 10:10:41;;;;;;;3.22;0.75;;;11.20;99.90;;;;;;5051374;28;20394;-64
2021/05/25 10:13:09;;;;;;;2.85;0.68;;;11.50;99.90;;;;;;5049464;28;20157;-64
2021/05/25 10:15:36;;;;;;;0.95;0.47;;;11.60;99.90;;;;;;5049170;28;20067;-64
2021/05/25 10:18:27;;;;;;;4.65;0.70;;;11.60;99.90;;;;;;5049780;28;20041;-64
2021/05/25 10:20:54;;;;;;;2.20;0.63;;;11.70;99.90;;;;;;5049368;28;20581;-64
2021/05/25 10:23:21;;;;;;;0.73;0.30;;;11.80;99.90;;;;;;5049754;28;20062;-64
2021/05/25 10:25:51;;;;;;;0.52;0.30;;;11.90;99.90;;;;;;5048685;28;20126;-64
2021/05/25 10:28:18;;;;;;;0.63;0.28;;;11.90;99.90;;;;;;5049873;28;20063;-64
2021/05/25 10:30:49;;;;;;;1.38;0.40;;;12.00;99.90;;;;;;5049328;28;20090;-64
2021/05/25 10:33:25;;;;;;;4.28;0.55;;;12.00;99.90;;;;;;5050601;28;20591;-64
2021/05/25 10:35:54;;;;;;;1.53;0.30;;;11.90;99.90;;;;;;5049472;28;20052;-64
2021/05/25 10:38:23;;;;;;;0.95;0.60;;;11.80;99.90;;;;;;5049206;28;20078;-64
2021/05/25 10:40:52;;;;;;;1.65;0.30;;;11.90;99.90;;;;;;5050473;28;20060;-64
2021/05/25 10:43:46;;;;;;;3.45;0.65;;;11.90;99.90;;;;;;5051347;28;20053;-64
2021/05/25 10:46:31;;;;;;;2.65;0.35;;;11.90;99.90;;;;;;5035505;28;20664;-64
2021/05/25 10:49:10;;;;;;;0.47;0.17;;;12.00;99.90;;;;;;5048183;28;20330;-64
2021/05/25 10:52:14;;;;;;;1.40;0.47;;;12.00;99.90;;;;;;5046021;28;20056;-64
2021/05/25 10:54:46;;;;;;;1.67;0.60;;;12.20;99.90;;;;;;5047156;28;20139;-64
2021/05/25 10:57:48;;;;;;;1.30;0.30;;;12.10;99.90;;;;;;5045333;28;20083;-64
2021/05/25 11:00:17;;;;;;;3.92;0.40;;;11.80;99.90;;;;;;5051487;28;20135;-64
2021/05/25 11:02:52;;;;;;;2.03;0.40;;;11.70;99.90;;;;;;5055097;28;20052;-64
2021/05/25 11:05:56;;;;;;;1.02;0.50;;;11.90;99.90;;;;;;5052852;28;20062;-65
2021/05/25 11:08:35;;;;;;;3.53;0.52;;;12.20;99.90;;;;;;5053841;28;20040;-64
2021/05/25 11:11:08;;;;;;;1.88;0.40;;;11.90;99.90;;;;;;5054099;28;20051;-64
2021/05/25 11:13:40;;;;;;;4.70;0.75;;;12.00;99.90;;;;;;5051052;28;20052;-64
2021/05/25 11:16:12;;;;;;;0.30;0.30;;;12.00;99.90;;;;;;5056686;28;20105;-64
2021/05/25 11:18:45;;;;;;;1.27;0.40;;;12.10;99.90;;;;;;5052988;28;20054;-64
2021/05/25 11:21:48;;;;;;;3.17;0.75;;;12.20;99.90;;;;;;5053329;28;20056;-64
2021/05/25 11:24:29;;;;;;;2.35;0.38;;;12.30;99.90;;;;;;5052284;28;20052;-63
2021/05/25 11:26:58;;;;;;;6.97;0.73;;;12.40;99.90;;;;;;5046552;28;20070;-64
2021/05/25 11:29:27;;;;;;;2.05;0.40;;;12.60;99.90;;;;;;5050158;28;20147;-64
2021/05/25 11:31:56;;;;;;;1.25;0.30;;;12.30;99.90;;;;;;5049139;28;20133;-63
2021/05/25 11:34:26;;;;;;;4.25;0.60;;;12.00;99.90;;;;;;5047594;28;20622;-63
2021/05/25 11:36:59;;;;;;;1.80;0.50;;;12.20;99.90;;;;;;5050418;28;21057;-64
2021/05/25 11:39:26;;;;;;;1.90;0.60;;;12.10;99.90;;;;;;5051068;28;20087;-64
2021/05/25 11:41:52;;;;;;;2.58;0.75;;;12.70;99.90;;;;;;5052423;28;20519;-64
2021/05/25 11:44:20;;;;;;;2.00;0.40;;;13.20;99.90;;;;;;5051028;28;20052;-64
2021/05/25 11:46:48;;;;;;;2.80;0.50;;;13.10;99.90;;;;;;5052108;28;20518;-67
2021/05/25 11:49:16;;;;;;;3.35;0.60;;;13.80;99.90;;;;;;5047370;28;20047;-64
2021/05/25 11:51:45;;;;;;;4.32;0.55;;;13.90;99.90;;;;;;5047652;28;20044;-64
2021/05/25 11:54:15;;;;;;;1.25;0.47;;;13.60;99.90;;;;;;5045014;28;20056;-64
2021/05/25 11:56:45;;;;;;;3.83;0.43;;;13.30;99.90;;;;;;5042354;28;21016;-64
2021/05/25 11:59:13;;;;;;;1.00;0.40;;;13.50;99.90;;;;;;5052378;28;20055;-64
2021/05/25 12:01:45;;;;;;;2.47;0.52;;;12.90;99.90;;;;;;5033971;28;20540;-69
2021/05/25 12:04:12;;;;;;;2.55;0.57;;;13.00;99.90;;;;;;5035524;28;20470;-67
2021/05/25 12:06:53;;;;;;;1.48;0.68;;;12.90;99.90;;;;;;5039719;28;20079;-68
2021/05/25 12:09:24;;;;;;;5.07;1.17;;;12.70;99.90;;;;;;5040693;28;20079;-68
2021/05/25 12:11:57;;;;;;;2.70;0.47;;;12.40;99.90;;;;;;5038897;28;20570;-69
2021/05/25 12:14:29;;;;;;;3.22;0.60;;;12.60;99.90;;;;;;5038712;28;20078;-69
2021/05/25 12:16:57;;;;;;;1.05;0.30;;;12.60;99.90;;;;;;5039178;28;20540;-64
2021/05/25 12:19:25;;;;;;;2.00;0.63;;;13.30;99.90;;;;;;5048103;28;20060;-66
2021/05/25 12:22:01;;;;;;;0.75;0.40;;;13.90;99.90;;;;;;5050514;28;20630;-66
2021/05/25 12:24:29;;;;;;;5.13;0.88;;;13.60;99.90;;;;;;5046864;28;20044;-67
2021/05/25 12:26:57;;;;;;;1.00;0.50;;;13.50;99.90;;;;;;5048898;28;20521;-66
2021/05/25 12:29:25;;;;;;;3.05;0.55;;;13.60;99.90;;;;;;5049227;28;20525;-67
2021/05/25 12:31:52;;;;;;;5.50;0.73;;;13.70;99.90;;;;;;5049165;28;20117;-67
2021/05/25 12:34:21;;;;;;;1.63;0.50;;;14.10;99.90;;;;;;5041627;28;20337;-67
2021/05/25 12:36:55;;;;;;;1.73;0.38;;;14.40;99.90;;;;;;5051558;28;20582;-67
2021/05/25 12:39:37;;;;;;;0.45;0.40;;;14.00;99.90;;;;;;5054116;28;20052;-67
2021/05/25 12:42:13;;;;;;;0.93;0.50;;;13.70;99.90;;;;;;5051518;28;20063;-66
2021/05/25 12:44:39;;;;;;;3.88;0.80;;;13.40;99.90;;;;;;5047529;28;20373;-66
2021/05/25 12:47:08;;;;;;;2.47;0.75;;;13.70;99.90;;;;;;5046591;28;20059;-67
2021/05/25 12:49:37;;;;;;;2.35;0.85;;;13.90;99.90;;;;;;5048475;28;20175;-66
2021/05/25 12:52:21;;;;;;;0.73;0.52;;;14.40;99.90;;;;;;5049691;28;20060;-67
2021/05/25 12:54:53;;;;;;;1.65;0.55;;;15.30;99.90;;;;;;5045222;28;20053;-67
2021/05/25 12:57:20;;;;;;;1.92;0.73;;;16.10;99.90;;;;;;5047536;28;20416;-67
2021/05/25 12:59:58;;;;;;;1.42;0.38;;;16.50;99.90;;;;;;5053379;28;20048;-69
2021/05/25 13:02:40;;;;;;;3.47;0.68;;;16.60;99.90;;;;;;5047077;28;20056;-68
2021/05/25 13:05:09;;;;;;;2.33;0.60;;;16.70;99.90;;;;;;5047443;28;20040;-67